sensor_id;sensor_type;location;lat;lon;timestamp;P1;durP1;ratioP1;P2;durP2;ratioP2
11439;SDS011;5776;51.814;4.510;2024-03-23T00:52:23;6.90;;;1.63;;
11439;SDS011;5776;51.814;4.510;2024-03-23T00:54:51;7.33;;;2.37;;
11439;SDS011;5776;51.814;4.510;2024-03-23T00:57:17;10.20;;;2.60;;
11439;SDS011;5776;51.814;4.510;2024-03-23T00:59:42;13.90;;;3.40;;
11439;SDS011;5776;51.814;4.510;2024-03-23T01:02:08;5.07;;;2.03;;
11439;SDS011;5776;51.814;4.510;2024-03-23T01:04:33;8.80;;;2.50;;
11439;SDS011;5776;51.814;4.510;2024-03-23T01:06:59;7.63;;;2.60;;
11439;SDS011;5776;51.814;4.510;2024-03-23T01:09:25;6.33;;;2.20;;
11439;SDS011;5776;51.814;4.510;2024-03-23T01:11:51;6.40;;;1.83;;
11439;SDS011;5776;51.814;4.510;2024-03-23T01:14:17;6.50;;;2.50;;
11439;SDS011;5776;51.814;4.510;2024-03-23T01:16:43;7.43;;;3.17;;
11439;SDS011;5776;51.814;4.510;2024-03-23T01:19:09;9.30;;;3.10;;
11439;SDS011;5776;51.814;4.510;2024-03-23T01:21:35;8.70;;;2.57;;
11439;SDS011;5776;51.814;4.510;2024-03-23T01:24:02;10.73;;;3.50;;
11439;SDS011;5776;51.814;4.510;2024-03-23T01:26:27;8.03;;;2.90;;
11439;SDS011;5776;51.814;4.510;2024-03-23T01:28:54;8.13;;;3.90;;
11439;SDS011;5776;51.814;4.510;2024-03-23T01:31:20;9.03;;;3.60;;
11439;SDS011;5776;51.814;4.510;2024-03-23T01:33:46;7.57;;;2.47;;
11439;SDS011;5776;51.814;4.510;2024-03-23T01:36:13;9.40;;;3.43;;
11439;SDS011;5776;51.814;4.510;2024-03-23T01:38:39;15.17;;;4.30;;
11439;SDS011;5776;51.814;4.510;2024-03-23T01:41:04;8.47;;;3.33;;
11439;SDS011;5776;51.814;4.510;2024-03-23T01:43:31;11.30;;;3.67;;
11439;SDS011;5776;51.814;4.510;2024-03-23T01:45:58;10.37;;;3.50;;
11439;SDS011;5776;51.814;4.510;2024-03-23T01:48:23;13.57;;;3.03;;
11439;SDS011;5776;51.814;4.510;2024-03-23T01:50:50;12.77;;;2.63;;
11439;SDS011;5776;51.814;4.510;2024-03-23T01:53:16;11.20;;;2.40;;
11439;SDS011;5776;51.814;4.510;2024-03-23T01:55:45;10.00;;;2.80;;
11439;SDS011;5776;51.814;4.510;2024-03-23T01:58:11;8.97;;;2.40;;
11439;SDS011;5776;51.814;4.510;2024-03-23T02:00:37;6.10;;;2.00;;
11439;SDS011;5776;51.814;4.510;2024-03-23T02:03:03;6.73;;;1.70;;
11439;SDS011;5776;51.814;4.510;2024-03-23T02:05:47;5.90;;;1.93;;
11439;SDS011;5776;51.814;4.510;2024-03-23T02:08:13;11.60;;;2.17;;
11439;SDS011;5776;51.814;4.510;2024-03-23T02:10:40;8.47;;;2.07;;
11439;SDS011;5776;51.814;4.510;2024-03-23T02:13:09;4.10;;;1.53;;
11439;SDS011;5776;51.814;4.510;2024-03-23T02:15:36;6.73;;;1.73;;
11439;SDS011;5776;51.814;4.510;2024-03-23T02:18:03;5.17;;;1.67;;
11439;SDS011;5776;51.814;4.510;2024-03-23T02:20:29;13.00;;;2.00;;
11439;SDS011;5776;51.814;4.510;2024-03-23T02:22:54;9.60;;;1.83;;
11439;SDS011;5776;51.814;4.510;2024-03-23T02:25:21;8.93;;;1.60;;
11439;SDS011;5776;51.814;4.510;2024-03-23T02:27:47;7.20;;;1.60;;
11439;SDS011;5776;51.814;4.510;2024-03-23T02:30:16;8.83;;;1.80;;
11439;SDS011;5776;51.814;4.510;2024-03-23T02:32:42;7.57;;;1.67;;
11439;SDS011;5776;51.814;4.510;2024-03-23T02:35:08;7.10;;;2.07;;
11439;SDS011;5776;51.814;4.510;2024-03-23T02:37:34;4.97;;;1.63;;
11439;SDS011;5776;51.814;4.510;2024-03-23T02:40:00;9.10;;;2.00;;
11439;SDS011;5776;51.814;4.510;2024-03-23T02:42:26;8.17;;;1.80;;
11439;SDS011;5776;51.814;4.510;2024-03-23T02:44:51;12.87;;;1.90;;
11439;SDS011;5776;51.814;4.510;2024-03-23T02:47:17;8.00;;;1.27;;
11439;SDS011;5776;51.814;4.510;2024-03-23T02:49:43;6.50;;;1.87;;
11439;SDS011;5776;51.814;4.510;2024-03-23T02:52:09;9.23;;;2.13;;
11439;SDS011;5776;51.814;4.510;2024-03-23T02:54:35;8.67;;;1.67;;
11439;SDS011;5776;51.814;4.510;2024-03-23T02:57:01;11.60;;;2.03;;
11439;SDS011;5776;51.814;4.510;2024-03-23T02:59:27;12.83;;;2.47;;
11439;SDS011;5776;51.814;4.510;2024-03-23T03:01:53;10.30;;;1.40;;
11439;SDS011;5776;51.814;4.510;2024-03-23T03:04:19;5.40;;;2.07;;
11439;SDS011;5776;51.814;4.510;2024-03-23T03:06:48;5.17;;;1.43;;
11439;SDS011;5776;51.814;4.510;2024-03-23T03:09:16;2.80;;;1.27;;
11439;SDS011;5776;51.814;4.510;2024-03-23T03:11:42;7.20;;;1.60;;
11439;SDS011;5776;51.814;4.510;2024-03-23T03:14:08;6.23;;;1.90;;
11439;SDS011;5776;51.814;4.510;2024-03-23T03:16:34;7.70;;;1.47;;
11439;SDS011;5776;51.814;4.510;2024-03-23T03:19:00;10.67;;;1.73;;
11439;SDS011;5776;51.814;4.510;2024-03-23T03:21:27;4.10;;;1.60;;
11439;SDS011;5776;51.814;4.510;2024-03-23T03:23:54;9.23;;;1.50;;
11439;SDS011;5776;51.814;4.510;2024-03-23T03:26:22;8.90;;;1.70;;
11439;SDS011;5776;51.814;4.510;2024-03-23T03:28:48;12.13;;;2.13;;
11439;SDS011;5776;51.814;4.510;2024-03-23T03:31:15;5.67;;;1.50;;
11439;SDS011;5776;51.814;4.510;2024-03-23T03:33:42;10.30;;;2.00;;
11439;SDS011;5776;51.814;4.510;2024-03-23T03:36:08;7.30;;;1.60;;
11439;SDS011;5776;51.814;4.510;2024-03-23T03:38:34;17.30;;;2.57;;
11439;SDS011;5776;51.814;4.510;2024-03-23T03:41:01;11.40;;;1.53;;
11439;SDS011;5776;51.814;4.510;2024-03-23T03:43:27;8.00;;;1.20;;
11439;SDS011;5776;51.814;4.510;2024-03-23T03:45:53;11.27;;;1.83;;
11439;SDS011;5776;51.814;4.510;2024-03-23T03:48:19;9.33;;;1.60;;
11439;SDS011;5776;51.814;4.510;2024-03-23T03:50:46;9.87;;;1.30;;
11439;SDS011;5776;51.814;4.510;2024-03-23T03:53:12;6.53;;;1.70;;
11439;SDS011;5776;51.814;4.510;2024-03-23T03:55:38;11.27;;;1.40;;
11439;SDS011;5776;51.814;4.510;2024-03-23T03:58:05;7.07;;;1.20;;
11439;SDS011;5776;51.814;4.510;2024-03-23T04:00:30;7.83;;;1.57;;
11439;SDS011;5776;51.814;4.510;2024-03-23T04:02:57;4.17;;;1.47;;
11439;SDS011;5776;51.814;4.510;2024-03-23T04:05:23;5.00;;;1.10;;
11439;SDS011;5776;51.814;4.510;2024-03-23T04:07:49;2.70;;;1.10;;
11439;SDS011;5776;51.814;4.510;2024-03-23T04:10:15;9.57;;;1.80;;
11439;SDS011;5776;51.814;4.510;2024-03-23T04:12:41;4.87;;;1.20;;
11439;SDS011;5776;51.814;4.510;2024-03-23T04:15:08;5.10;;;1.20;;
11439;SDS011;5776;51.814;4.510;2024-03-23T04:17:36;5.73;;;1.00;;
11439;SDS011;5776;51.814;4.510;2024-03-23T04:20:02;4.13;;;1.13;;
11439;SDS011;5776;51.814;4.510;2024-03-23T04:22:35;5.23;;;1.30;;
11439;SDS011;5776;51.814;4.510;2024-03-23T04:25:00;4.77;;;1.60;;
11439;SDS011;5776;51.814;4.510;2024-03-23T04:27:33;3.93;;;1.10;;
11439;SDS011;5776;51.814;4.510;2024-03-23T04:29:59;9.70;;;1.43;;
11439;SDS011;5776;51.814;4.510;2024-03-23T04:32:29;4.83;;;1.37;;
11439;SDS011;5776;51.814;4.510;2024-03-23T04:34:56;6.63;;;1.10;;
11439;SDS011;5776;51.814;4.510;2024-03-23T04:37:24;7.33;;;1.37;;
11439;SDS011;5776;51.814;4.510;2024-03-23T04:39:52;5.47;;;1.10;;
11439;SDS011;5776;51.814;4.510;2024-03-23T04:42:18;4.33;;;1.13;;
11439;SDS011;5776;51.814;4.510;2024-03-23T04:44:44;8.00;;;1.50;;
11439;SDS011;5776;51.814;4.510;2024-03-23T04:47:10;1.40;;;0.80;;
11439;SDS011;5776;51.814;4.510;2024-03-23T04:49:36;4.20;;;1.20;;
11439;SDS011;5776;51.814;4.510;2024-03-23T04:52:05;6.47;;;1.30;;
11439;SDS011;5776;51.814;4.510;2024-03-23T04:54:31;7.87;;;1.33;;
11439;SDS011;5776;51.814;4.510;2024-03-23T04:57:01;7.57;;;1.40;;
11439;SDS011;5776;51.814;4.510;2024-03-23T04:59:28;5.07;;;1.60;;
11439;SDS011;5776;51.814;4.510;2024-03-23T05:01:54;3.80;;;1.17;;
11439;SDS011;5776;51.814;4.510;2024-03-23T05:04:19;4.90;;;1.27;;
11439;SDS011;5776;51.814;4.510;2024-03-23T05:06:45;5.13;;;1.13;;
11439;SDS011;5776;51.814;4.510;2024-03-23T05:09:12;5.07;;;1.20;;
11439;SDS011;5776;51.814;4.510;2024-03-23T05:11:38;7.20;;;1.20;;
11439;SDS011;5776;51.814;4.510;2024-03-23T05:14:04;7.20;;;1.63;;
11439;SDS011;5776;51.814;4.510;2024-03-23T05:16:30;8.97;;;1.70;;
11439;SDS011;5776;51.814;4.510;2024-03-23T05:18:57;8.67;;;1.60;;
11439;SDS011;5776;51.814;4.510;2024-03-23T05:21:24;11.10;;;1.80;;
11439;SDS011;5776;51.814;4.510;2024-03-23T05:23:49;7.20;;;1.90;;
11439;SDS011;5776;51.814;4.510;2024-03-23T05:26:16;9.80;;;1.73;;
11439;SDS011;5776;51.814;4.510;2024-03-23T05:28:44;5.20;;;1.63;;
11439;SDS011;5776;51.814;4.510;2024-03-23T05:31:10;8.43;;;2.17;;
11439;SDS011;5776;51.814;4.510;2024-03-23T05:33:37;8.03;;;1.90;;
11439;SDS011;5776;51.814;4.510;2024-03-23T05:36:07;11.17;;;2.23;;
11439;SDS011;5776;51.814;4.510;2024-03-23T05:38:36;8.97;;;1.93;;
11439;SDS011;5776;51.814;4.510;2024-03-23T05:41:03;7.27;;;1.97;;
11439;SDS011;5776;51.814;4.510;2024-03-23T05:43:29;8.77;;;1.97;;
11439;SDS011;5776;51.814;4.510;2024-03-23T05:45:57;11.03;;;2.00;;
11439;SDS011;5776;51.814;4.510;2024-03-23T05:48:23;12.73;;;2.23;;
11439;SDS011;5776;51.814;4.510;2024-03-23T05:50:50;8.43;;;2.20;;
11439;SDS011;5776;51.814;4.510;2024-03-23T05:53:16;10.33;;;2.10;;
11439;SDS011;5776;51.814;4.510;2024-03-23T05:55:43;8.60;;;2.10;;
11439;SDS011;5776;51.814;4.510;2024-03-23T05:58:09;5.37;;;1.70;;
11439;SDS011;5776;51.814;4.510;2024-03-23T06:00:36;10.63;;;2.63;;
11439;SDS011;5776;51.814;4.510;2024-03-23T06:03:02;4.70;;;1.80;;
11439;SDS011;5776;51.814;4.510;2024-03-23T06:05:28;6.83;;;1.60;;
11439;SDS011;5776;51.814;4.510;2024-03-23T06:07:54;7.10;;;1.60;;
11439;SDS011;5776;51.814;4.510;2024-03-23T06:10:20;8.07;;;2.00;;
11439;SDS011;5776;51.814;4.510;2024-03-23T06:12:46;6.70;;;1.87;;
11439;SDS011;5776;51.814;4.510;2024-03-23T06:15:12;6.80;;;1.50;;
11439;SDS011;5776;51.814;4.510;2024-03-23T06:17:38;10.20;;;1.70;;
11439;SDS011;5776;51.814;4.510;2024-03-23T06:20:05;9.40;;;2.20;;
11439;SDS011;5776;51.814;4.510;2024-03-23T06:22:34;7.87;;;1.63;;
11439;SDS011;5776;51.814;4.510;2024-03-23T06:25:01;8.33;;;1.80;;
11439;SDS011;5776;51.814;4.510;2024-03-23T06:27:28;7.90;;;1.93;;
11439;SDS011;5776;51.814;4.510;2024-03-23T06:29:55;4.20;;;1.40;;
11439;SDS011;5776;51.814;4.510;2024-03-23T06:32:22;7.63;;;1.83;;
11439;SDS011;5776;51.814;4.510;2024-03-23T06:34:47;8.93;;;1.77;;
11439;SDS011;5776;51.814;4.510;2024-03-23T06:37:13;9.20;;;1.97;;
11439;SDS011;5776;51.814;4.510;2024-03-23T06:39:40;9.13;;;1.97;;
11439;SDS011;5776;51.814;4.510;2024-03-23T06:42:07;10.27;;;1.70;;
11439;SDS011;5776;51.814;4.510;2024-03-23T06:44:33;8.60;;;2.03;;
11439;SDS011;5776;51.814;4.510;2024-03-23T06:47:00;8.93;;;1.60;;
11439;SDS011;5776;51.814;4.510;2024-03-23T06:49:26;8.53;;;1.83;;
11439;SDS011;5776;51.814;4.510;2024-03-23T06:51:54;7.60;;;1.43;;
11439;SDS011;5776;51.814;4.510;2024-03-23T06:54:20;9.03;;;2.30;;
11439;SDS011;5776;51.814;4.510;2024-03-23T06:56:46;11.40;;;1.90;;
11439;SDS011;5776;51.814;4.510;2024-03-23T06:59:12;10.87;;;1.87;;
11439;SDS011;5776;51.814;4.510;2024-03-23T07:01:39;8.47;;;1.80;;
11439;SDS011;5776;51.814;4.510;2024-03-23T07:04:05;8.77;;;1.93;;
11439;SDS011;5776;51.814;4.510;2024-03-23T07:06:34;8.23;;;1.87;;
11439;SDS011;5776;51.814;4.510;2024-03-23T07:09:00;12.87;;;1.87;;
11439;SDS011;5776;51.814;4.510;2024-03-23T07:11:25;9.13;;;2.27;;
11439;SDS011;5776;51.814;4.510;2024-03-23T07:13:52;7.03;;;2.03;;
11439;SDS011;5776;51.814;4.510;2024-03-23T07:16:23;6.87;;;1.30;;
11439;SDS011;5776;51.814;4.510;2024-03-23T07:18:50;6.23;;;1.40;;
11439;SDS011;5776;51.814;4.510;2024-03-23T07:21:16;7.40;;;1.90;;
11439;SDS011;5776;51.814;4.510;2024-03-23T07:23:43;5.23;;;1.43;;
11439;SDS011;5776;51.814;4.510;2024-03-23T07:26:11;9.27;;;1.80;;
11439;SDS011;5776;51.814;4.510;2024-03-23T07:28:38;5.57;;;1.83;;
11439;SDS011;5776;51.814;4.510;2024-03-23T07:31:08;8.67;;;2.10;;
11439;SDS011;5776;51.814;4.510;2024-03-23T07:33:44;6.33;;;1.63;;
11439;SDS011;5776;51.814;4.510;2024-03-23T07:36:12;8.20;;;2.23;;
11439;SDS011;5776;51.814;4.510;2024-03-23T07:38:41;7.37;;;1.50;;
11439;SDS011;5776;51.814;4.510;2024-03-23T07:41:10;6.30;;;1.90;;
11439;SDS011;5776;51.814;4.510;2024-03-23T07:43:38;7.30;;;2.07;;
11439;SDS011;5776;51.814;4.510;2024-03-23T07:46:04;12.33;;;2.50;;
11439;SDS011;5776;51.814;4.510;2024-03-23T07:48:31;5.63;;;1.70;;
11439;SDS011;5776;51.814;4.510;2024-03-23T07:53:27;9.27;;;2.00;;
11439;SDS011;5776;51.814;4.510;2024-03-23T07:55:54;6.10;;;2.00;;
11439;SDS011;5776;51.814;4.510;2024-03-23T07:58:20;10.27;;;1.93;;
11439;SDS011;5776;51.814;4.510;2024-03-23T08:00:46;6.87;;;1.93;;
11439;SDS011;5776;51.814;4.510;2024-03-23T08:03:13;10.13;;;1.90;;
11439;SDS011;5776;51.814;4.510;2024-03-23T08:05:39;9.23;;;2.30;;
11439;SDS011;5776;51.814;4.510;2024-03-23T08:08:06;6.90;;;1.60;;
11439;SDS011;5776;51.814;4.510;2024-03-23T08:10:32;6.77;;;2.10;;
11439;SDS011;5776;51.814;4.510;2024-03-23T08:12:58;10.30;;;1.90;;
11439;SDS011;5776;51.814;4.510;2024-03-23T08:15:23;9.53;;;1.70;;
11439;SDS011;5776;51.814;4.510;2024-03-23T08:17:50;6.83;;;1.70;;
11439;SDS011;5776;51.814;4.510;2024-03-23T08:20:15;8.67;;;1.80;;
11439;SDS011;5776;51.814;4.510;2024-03-23T08:22:41;11.23;;;2.17;;
11439;SDS011;5776;51.814;4.510;2024-03-23T08:25:08;8.47;;;1.90;;
11439;SDS011;5776;51.814;4.510;2024-03-23T08:27:34;9.27;;;2.10;;
11439;SDS011;5776;51.814;4.510;2024-03-23T08:30:00;6.87;;;1.97;;
11439;SDS011;5776;51.814;4.510;2024-03-23T08:32:26;6.87;;;1.93;;
11439;SDS011;5776;51.814;4.510;2024-03-23T08:34:52;13.90;;;2.10;;
11439;SDS011;5776;51.814;4.510;2024-03-23T08:37:19;9.77;;;2.47;;
11439;SDS011;5776;51.814;4.510;2024-03-23T08:39:45;8.93;;;2.07;;
11439;SDS011;5776;51.814;4.510;2024-03-23T08:42:10;9.80;;;1.87;;
11439;SDS011;5776;51.814;4.510;2024-03-23T08:44:36;10.60;;;1.90;;
11439;SDS011;5776;51.814;4.510;2024-03-23T08:47:04;12.63;;;1.67;;
11439;SDS011;5776;51.814;4.510;2024-03-23T08:49:30;6.27;;;1.60;;
11439;SDS011;5776;51.814;4.510;2024-03-23T08:51:56;12.13;;;1.63;;
11439;SDS011;5776;51.814;4.510;2024-03-23T08:54:22;10.80;;;1.90;;
11439;SDS011;5776;51.814;4.510;2024-03-23T08:56:49;7.90;;;1.63;;
11439;SDS011;5776;51.814;4.510;2024-03-23T08:59:14;6.60;;;1.97;;
11439;SDS011;5776;51.814;4.510;2024-03-23T09:01:40;10.33;;;2.20;;
11439;SDS011;5776;51.814;4.510;2024-03-23T09:04:07;7.57;;;2.03;;
11439;SDS011;5776;51.814;4.510;2024-03-23T09:06:34;6.73;;;1.80;;
11439;SDS011;5776;51.814;4.510;2024-03-23T09:09:00;8.87;;;1.67;;
11439;SDS011;5776;51.814;4.510;2024-03-23T09:11:27;8.63;;;1.90;;
11439;SDS011;5776;51.814;4.510;2024-03-23T09:13:53;8.80;;;1.90;;
11439;SDS011;5776;51.814;4.510;2024-03-23T09:16:19;10.70;;;2.10;;
11439;SDS011;5776;51.814;4.510;2024-03-23T09:18:45;12.37;;;1.80;;
11439;SDS011;5776;51.814;4.510;2024-03-23T09:21:11;7.03;;;2.10;;
11439;SDS011;5776;51.814;4.510;2024-03-23T09:23:44;7.67;;;1.77;;
11439;SDS011;5776;51.814;4.510;2024-03-23T09:26:10;6.50;;;1.50;;
11439;SDS011;5776;51.814;4.510;2024-03-23T09:28:37;9.63;;;1.97;;
11439;SDS011;5776;51.814;4.510;2024-03-23T09:31:07;9.57;;;2.07;;
11439;SDS011;5776;51.814;4.510;2024-03-23T09:33:35;10.10;;;1.97;;
11439;SDS011;5776;51.814;4.510;2024-03-23T09:36:04;7.77;;;2.63;;
11439;SDS011;5776;51.814;4.510;2024-03-23T09:38:31;9.97;;;1.83;;
11439;SDS011;5776;51.814;4.510;2024-03-23T09:40:58;10.97;;;2.10;;
11439;SDS011;5776;51.814;4.510;2024-03-23T09:43:25;7.57;;;1.90;;
11439;SDS011;5776;51.814;4.510;2024-03-23T09:45:51;9.47;;;1.70;;
11439;SDS011;5776;51.814;4.510;2024-03-23T09:48:18;5.13;;;1.63;;
11439;SDS011;5776;51.814;4.510;2024-03-23T09:50:44;6.00;;;1.53;;
11439;SDS011;5776;51.814;4.510;2024-03-23T09:53:14;8.43;;;1.80;;
11439;SDS011;5776;51.814;4.510;2024-03-23T09:55:41;8.53;;;1.67;;
11439;SDS011;5776;51.814;4.510;2024-03-23T09:58:13;6.43;;;1.33;;
11439;SDS011;5776;51.814;4.510;2024-03-23T10:00:40;11.77;;;1.90;;
11439;SDS011;5776;51.814;4.510;2024-03-23T10:03:06;10.33;;;2.10;;
11439;SDS011;5776;51.814;4.510;2024-03-23T10:05:32;5.07;;;1.70;;
11439;SDS011;5776;51.814;4.510;2024-03-23T10:10:40;5.83;;;1.70;;
11439;SDS011;5776;51.814;4.510;2024-03-23T10:13:07;13.93;;;2.40;;
11439;SDS011;5776;51.814;4.510;2024-03-23T10:15:34;7.07;;;1.77;;
11439;SDS011;5776;51.814;4.510;2024-03-23T10:18:34;4.43;;;1.70;;
11439;SDS011;5776;51.814;4.510;2024-03-23T10:23:35;8.23;;;1.93;;
11439;SDS011;5776;51.814;4.510;2024-03-23T10:28:51;6.10;;;1.30;;
11439;SDS011;5776;51.814;4.510;2024-03-23T10:31:27;4.30;;;1.40;;
11439;SDS011;5776;51.814;4.510;2024-03-23T10:33:54;8.17;;;1.90;;
11439;SDS011;5776;51.814;4.510;2024-03-23T10:36:21;5.07;;;1.50;;
11439;SDS011;5776;51.814;4.510;2024-03-23T10:38:49;4.57;;;1.50;;
11439;SDS011;5776;51.814;4.510;2024-03-23T10:41:16;7.93;;;1.50;;
11439;SDS011;5776;51.814;4.510;2024-03-23T10:43:43;7.77;;;2.03;;
11439;SDS011;5776;51.814;4.510;2024-03-23T10:46:27;7.13;;;1.83;;
11439;SDS011;5776;51.814;4.510;2024-03-23T10:48:54;11.50;;;2.23;;
11439;SDS011;5776;51.814;4.510;2024-03-23T10:51:20;8.23;;;1.70;;
11439;SDS011;5776;51.814;4.510;2024-03-23T10:53:46;5.83;;;1.50;;
11439;SDS011;5776;51.814;4.510;2024-03-23T10:56:13;7.27;;;1.30;;
11439;SDS011;5776;51.814;4.510;2024-03-23T10:58:43;9.20;;;2.33;;
11439;SDS011;5776;51.814;4.510;2024-03-23T11:01:12;9.37;;;1.77;;
11439;SDS011;5776;51.814;4.510;2024-03-23T11:03:39;11.60;;;1.47;;
11439;SDS011;5776;51.814;4.510;2024-03-23T11:06:10;8.17;;;1.70;;
11439;SDS011;5776;51.814;4.510;2024-03-23T11:08:39;4.73;;;1.50;;
11439;SDS011;5776;51.814;4.510;2024-03-23T11:11:12;10.83;;;1.93;;
11439;SDS011;5776;51.814;4.510;2024-03-23T11:13:47;14.73;;;1.97;;
11439;SDS011;5776;51.814;4.510;2024-03-23T11:16:14;5.40;;;1.53;;
11439;SDS011;5776;51.814;4.510;2024-03-23T11:18:49;8.50;;;1.60;;
11439;SDS011;5776;51.814;4.510;2024-03-23T11:24:19;9.07;;;2.10;;
11439;SDS011;5776;51.814;4.510;2024-03-23T11:26:46;5.33;;;1.57;;
11439;SDS011;5776;51.814;4.510;2024-03-23T11:29:13;6.00;;;1.53;;
11439;SDS011;5776;51.814;4.510;2024-03-23T11:31:48;7.13;;;1.30;;
11439;SDS011;5776;51.814;4.510;2024-03-23T11:34:21;7.90;;;2.07;;
11439;SDS011;5776;51.814;4.510;2024-03-23T11:36:48;10.83;;;2.03;;
11439;SDS011;5776;51.814;4.510;2024-03-23T11:39:19;6.40;;;1.90;;
11439;SDS011;5776;51.814;4.510;2024-03-23T11:41:50;4.77;;;1.50;;
11439;SDS011;5776;51.814;4.510;2024-03-23T11:44:18;6.83;;;1.73;;
11439;SDS011;5776;51.814;4.510;2024-03-23T11:46:45;6.87;;;1.30;;
11439;SDS011;5776;51.814;4.510;2024-03-23T11:49:23;7.43;;;1.57;;
11439;SDS011;5776;51.814;4.510;2024-03-23T11:51:50;5.50;;;1.93;;
11439;SDS011;5776;51.814;4.510;2024-03-23T11:54:21;7.77;;;1.80;;
11439;SDS011;5776;51.814;4.510;2024-03-23T11:56:54;6.53;;;2.10;;
11439;SDS011;5776;51.814;4.510;2024-03-23T11:59:34;5.60;;;1.80;;
11439;SDS011;5776;51.814;4.510;2024-03-23T12:02:06;10.77;;;1.70;;
11439;SDS011;5776;51.814;4.510;2024-03-23T12:04:32;6.77;;;1.20;;
11439;SDS011;5776;51.814;4.510;2024-03-23T12:09:46;7.60;;;1.60;;
11439;SDS011;5776;51.814;4.510;2024-03-23T12:12:14;5.63;;;1.20;;
11439;SDS011;5776;51.814;4.510;2024-03-23T12:14:44;6.80;;;1.90;;
11439;SDS011;5776;51.814;4.510;2024-03-23T12:17:14;5.60;;;1.40;;
11439;SDS011;5776;51.814;4.510;2024-03-23T12:19:42;4.67;;;1.50;;
11439;SDS011;5776;51.814;4.510;2024-03-23T12:22:08;4.73;;;1.30;;
11439;SDS011;5776;51.814;4.510;2024-03-23T12:24:34;7.80;;;1.50;;
11439;SDS011;5776;51.814;4.510;2024-03-23T12:27:01;10.13;;;1.20;;
11439;SDS011;5776;51.814;4.510;2024-03-23T12:29:28;4.83;;;1.33;;
11439;SDS011;5776;51.814;4.510;2024-03-23T12:31:55;7.50;;;1.50;;
11439;SDS011;5776;51.814;4.510;2024-03-23T12:34:21;7.60;;;1.53;;
11439;SDS011;5776;51.814;4.510;2024-03-23T12:36:47;5.27;;;1.43;;
11439;SDS011;5776;51.814;4.510;2024-03-23T12:39:13;7.70;;;1.70;;
11439;SDS011;5776;51.814;4.510;2024-03-23T12:41:38;6.77;;;1.93;;
11439;SDS011;5776;51.814;4.510;2024-03-23T12:44:06;6.00;;;1.03;;
11439;SDS011;5776;51.814;4.510;2024-03-23T12:46:34;8.57;;;1.80;;
11439;SDS011;5776;51.814;4.510;2024-03-23T12:49:00;4.77;;;1.30;;
11439;SDS011;5776;51.814;4.510;2024-03-23T12:51:26;5.93;;;1.77;;
11439;SDS011;5776;51.814;4.510;2024-03-23T12:53:52;4.63;;;1.67;;
11439;SDS011;5776;51.814;4.510;2024-03-23T12:56:18;10.60;;;1.77;;
11439;SDS011;5776;51.814;4.510;2024-03-23T12:58:44;7.03;;;2.27;;
11439;SDS011;5776;51.814;4.510;2024-03-23T13:01:17;7.00;;;1.80;;
11439;SDS011;5776;51.814;4.510;2024-03-23T13:03:48;7.27;;;1.50;;
11439;SDS011;5776;51.814;4.510;2024-03-23T13:06:15;5.40;;;1.40;;
11439;SDS011;5776;51.814;4.510;2024-03-23T13:08:43;8.17;;;1.53;;
11439;SDS011;5776;51.814;4.510;2024-03-23T13:11:10;7.23;;;2.20;;
11439;SDS011;5776;51.814;4.510;2024-03-23T13:13:37;7.23;;;1.80;;
11439;SDS011;5776;51.814;4.510;2024-03-23T13:16:04;6.53;;;1.37;;
11439;SDS011;5776;51.814;4.510;2024-03-23T13:18:31;8.80;;;1.77;;
11439;SDS011;5776;51.814;4.510;2024-03-23T13:20:57;12.00;;;1.80;;
11439;SDS011;5776;51.814;4.510;2024-03-23T13:23:24;8.13;;;2.17;;
11439;SDS011;5776;51.814;4.510;2024-03-23T13:25:51;7.60;;;1.60;;
11439;SDS011;5776;51.814;4.510;2024-03-23T13:28:19;4.67;;;1.40;;
11439;SDS011;5776;51.814;4.510;2024-03-23T13:30:53;6.77;;;1.83;;
11439;SDS011;5776;51.814;4.510;2024-03-23T13:33:21;6.30;;;1.13;;
11439;SDS011;5776;51.814;4.510;2024-03-23T13:35:54;7.53;;;1.53;;
11439;SDS011;5776;51.814;4.510;2024-03-23T13:38:23;5.03;;;1.30;;
11439;SDS011;5776;51.814;4.510;2024-03-23T13:40:56;10.00;;;1.50;;
11439;SDS011;5776;51.814;4.510;2024-03-23T13:43:23;7.43;;;1.63;;
11439;SDS011;5776;51.814;4.510;2024-03-23T13:45:51;6.87;;;1.20;;
11439;SDS011;5776;51.814;4.510;2024-03-23T13:48:19;6.30;;;1.30;;
11439;SDS011;5776;51.814;4.510;2024-03-23T13:50:46;7.20;;;1.73;;
11439;SDS011;5776;51.814;4.510;2024-03-23T13:53:15;6.27;;;1.43;;
11439;SDS011;5776;51.814;4.510;2024-03-23T13:55:47;5.73;;;1.20;;
11439;SDS011;5776;51.814;4.510;2024-03-23T13:58:14;6.60;;;1.60;;
11439;SDS011;5776;51.814;4.510;2024-03-23T14:00:41;6.60;;;1.47;;
11439;SDS011;5776;51.814;4.510;2024-03-23T14:03:11;1.80;;;0.77;;
11439;SDS011;5776;51.814;4.510;2024-03-23T14:05:38;2.97;;;0.90;;
11439;SDS011;5776;51.814;4.510;2024-03-23T14:08:06;2.50;;;0.60;;
11439;SDS011;5776;51.814;4.510;2024-03-23T14:10:33;2.63;;;0.80;;
11439;SDS011;5776;51.814;4.510;2024-03-23T14:13:01;2.37;;;0.40;;
11439;SDS011;5776;51.814;4.510;2024-03-23T14:15:29;1.63;;;0.63;;
11439;SDS011;5776;51.814;4.510;2024-03-23T14:17:55;3.93;;;0.53;;
11439;SDS011;5776;51.814;4.510;2024-03-23T14:20:22;0.93;;;0.50;;
11439;SDS011;5776;51.814;4.510;2024-03-23T14:22:49;1.43;;;0.60;;
11439;SDS011;5776;51.814;4.510;2024-03-23T14:25:15;1.50;;;0.40;;
11439;SDS011;5776;51.814;4.510;2024-03-23T14:27:46;4.70;;;0.73;;
11439;SDS011;5776;51.814;4.510;2024-03-23T14:30:12;3.27;;;0.80;;
11439;SDS011;5776;51.814;4.510;2024-03-23T14:32:39;2.50;;;0.70;;
11439;SDS011;5776;51.814;4.510;2024-03-23T14:35:05;3.07;;;1.00;;
11439;SDS011;5776;51.814;4.510;2024-03-23T14:37:37;4.77;;;1.30;;
11439;SDS011;5776;51.814;4.510;2024-03-23T14:40:03;5.77;;;1.20;;
11439;SDS011;5776;51.814;4.510;2024-03-23T14:42:30;5.40;;;0.93;;
11439;SDS011;5776;51.814;4.510;2024-03-23T14:44:59;4.03;;;0.80;;
11439;SDS011;5776;51.814;4.510;2024-03-23T14:47:25;2.73;;;0.80;;
11439;SDS011;5776;51.814;4.510;2024-03-23T14:49:51;3.13;;;0.57;;
11439;SDS011;5776;51.814;4.510;2024-03-23T14:52:17;1.57;;;0.67;;
11439;SDS011;5776;51.814;4.510;2024-03-23T14:54:45;3.00;;;0.60;;
11439;SDS011;5776;51.814;4.510;2024-03-23T14:57:11;2.40;;;0.50;;
11439;SDS011;5776;51.814;4.510;2024-03-23T14:59:37;2.27;;;0.53;;
11439;SDS011;5776;51.814;4.510;2024-03-23T15:02:04;1.13;;;0.40;;
11439;SDS011;5776;51.814;4.510;2024-03-23T15:04:30;0.30;;;0.23;;
11439;SDS011;5776;51.814;4.510;2024-03-23T15:06:56;0.40;;;0.30;;
11439;SDS011;5776;51.814;4.510;2024-03-23T15:09:22;0.70;;;0.30;;
11439;SDS011;5776;51.814;4.510;2024-03-23T15:11:48;2.93;;;0.40;;
11439;SDS011;5776;51.814;4.510;2024-03-23T15:14:13;2.47;;;0.40;;
11439;SDS011;5776;51.814;4.510;2024-03-23T15:16:39;0.63;;;0.40;;
11439;SDS011;5776;51.814;4.510;2024-03-23T15:19:06;0.40;;;0.30;;
11439;SDS011;5776;51.814;4.510;2024-03-23T15:21:32;5.57;;;0.50;;
11439;SDS011;5776;51.814;4.510;2024-03-23T15:23:58;1.77;;;0.50;;
11439;SDS011;5776;51.814;4.510;2024-03-23T15:26:23;0.40;;;0.30;;
11439;SDS011;5776;51.814;4.510;2024-03-23T15:28:49;2.23;;;0.60;;
11439;SDS011;5776;51.814;4.510;2024-03-23T15:31:24;1.63;;;0.70;;
11439;SDS011;5776;51.814;4.510;2024-03-23T15:33:51;3.67;;;0.77;;
11439;SDS011;5776;51.814;4.510;2024-03-23T15:36:17;3.63;;;1.00;;
11439;SDS011;5776;51.814;4.510;2024-03-23T15:38:43;4.67;;;1.10;;
11439;SDS011;5776;51.814;4.510;2024-03-23T15:41:10;4.57;;;1.10;;
11439;SDS011;5776;51.814;4.510;2024-03-23T15:43:36;3.00;;;0.90;;
11439;SDS011;5776;51.814;4.510;2024-03-23T15:46:04;3.27;;;0.70;;
11439;SDS011;5776;51.814;4.510;2024-03-23T15:48:31;3.77;;;0.90;;
11439;SDS011;5776;51.814;4.510;2024-03-23T15:51:02;2.50;;;1.00;;
11439;SDS011;5776;51.814;4.510;2024-03-23T15:53:32;5.40;;;0.73;;
11439;SDS011;5776;51.814;4.510;2024-03-23T15:56:01;6.40;;;0.97;;
11439;SDS011;5776;51.814;4.510;2024-03-23T15:58:28;6.57;;;1.17;;
11439;SDS011;5776;51.814;4.510;2024-03-23T16:00:59;2.90;;;0.63;;
11439;SDS011;5776;51.814;4.510;2024-03-23T16:03:25;5.10;;;1.30;;
11439;SDS011;5776;51.814;4.510;2024-03-23T16:05:56;3.63;;;0.90;;
11439;SDS011;5776;51.814;4.510;2024-03-23T16:08:23;5.30;;;1.40;;